sensor_id;sensor_type;location;lat;lon;timestamp;P1;durP1;ratioP1;P2;durP2;ratioP2
76284;SDS011;65096;50.998;7.098;2023-03-23T00:00:55;5.03;;;1.70;;
76284;SDS011;65096;50.998;7.098;2023-03-23T00:03:21;1.98;;;1.30;;
76284;SDS011;65096;50.998;7.098;2023-03-23T00:05:50;5.97;;;1.73;;
76284;SDS011;65096;50.998;7.098;2023-03-23T00:08:19;4.32;;;1.58;;
76284;SDS011;65096;50.998;7.098;2023-03-23T00:10:48;4.25;;;1.70;;
76284;SDS011;65096;50.998;7.098;2023-03-23T00:13:17;5.07;;;1.65;;
76284;SDS011;65096;50.998;7.098;2023-03-23T00:15:45;3.53;;;1.50;;
76284;SDS011;65096;50.998;7.098;2023-03-23T00:18:14;4.38;;;1.75;;
76284;SDS011;65096;50.998;7.098;2023-03-23T00:20:46;4.95;;;1.92;;
76284;SDS011;65096;50.998;7.098;2023-03-23T00:23:14;2.97;;;1.42;;
76284;SDS011;65096;50.998;7.098;2023-03-23T00:25:45;2.80;;;1.30;;
76284;SDS011;65096;50.998;7.098;2023-03-23T00:28:13;3.85;;;1.48;;
76284;SDS011;65096;50.998;7.098;2023-03-23T00:30:41;3.97;;;1.40;;
76284;SDS011;65096;50.998;7.098;2023-03-23T00:33:10;3.13;;;1.42;;
76284;SDS011;65096;50.998;7.098;2023-03-23T00:35:39;3.88;;;1.25;;
76284;SDS011;65096;50.998;7.098;2023-03-23T00:38:09;5.53;;;1.90;;
76284;SDS011;65096;50.998;7.098;2023-03-23T00:40:36;3.72;;;1.50;;
76284;SDS011;65096;50.998;7.098;2023-03-23T00:43:04;4.30;;;1.40;;
76284;SDS011;65096;50.998;7.098;2023-03-23T00:45:31;3.70;;;1.38;;
76284;SDS011;65096;50.998;7.098;2023-03-23T00:47:59;3.05;;;1.20;;
76284;SDS011;65096;50.998;7.098;2023-03-23T00:50:27;3.13;;;1.23;;
76284;SDS011;65096;50.998;7.098;2023-03-23T00:52:54;3.72;;;1.40;;
76284;SDS011;65096;50.998;7.098;2023-03-23T00:55:21;3.55;;;1.50;;
76284;SDS011;65096;50.998;7.098;2023-03-23T00:57:49;3.28;;;1.10;;
76284;SDS011;65096;50.998;7.098;2023-03-23T01:00:20;3.90;;;1.27;;
76284;SDS011;65096;50.998;7.098;2023-03-23T01:02:47;3.83;;;1.35;;
76284;SDS011;65096;50.998;7.098;2023-03-23T01:05:16;5.18;;;1.30;;
76284;SDS011;65096;50.998;7.098;2023-03-23T01:07:43;2.50;;;1.20;;
76284;SDS011;65096;50.998;7.098;2023-03-23T01:10:12;3.10;;;1.35;;
76284;SDS011;65096;50.998;7.098;2023-03-23T01:12:41;3.63;;;1.13;;
76284;SDS011;65096;50.998;7.098;2023-03-23T01:15:08;4.25;;;1.15;;
76284;SDS011;65096;50.998;7.098;2023-03-23T01:17:37;2.60;;;1.27;;
76284;SDS011;65096;50.998;7.098;2023-03-23T01:20:04;2.72;;;1.48;;
76284;SDS011;65096;50.998;7.098;2023-03-23T01:22:31;2.95;;;1.13;;
76284;SDS011;65096;50.998;7.098;2023-03-23T01:24:58;3.92;;;1.40;;
76284;SDS011;65096;50.998;7.098;2023-03-23T01:27:25;3.17;;;1.45;;
76284;SDS011;65096;50.998;7.098;2023-03-23T01:29:52;2.50;;;1.40;;
76284;SDS011;65096;50.998;7.098;2023-03-23T01:32:18;2.67;;;1.20;;
76284;SDS011;65096;50.998;7.098;2023-03-23T01:34:47;3.72;;;1.30;;
76284;SDS011;65096;50.998;7.098;2023-03-23T01:37:14;3.67;;;1.38;;
76284;SDS011;65096;50.998;7.098;2023-03-23T01:39:41;1.88;;;1.23;;
76284;SDS011;65096;50.998;7.098;2023-03-23T01:42:08;5.28;;;2.65;;
76284;SDS011;65096;50.998;7.098;2023-03-23T01:47:54;2.92;;;1.30;;
76284;SDS011;65096;50.998;7.098;2023-03-23T01:50:26;3.40;;;1.42;;
76284;SDS011;65096;50.998;7.098;2023-03-23T01:52:54;5.88;;;1.80;;
76284;SDS011;65096;50.998;7.098;2023-03-23T01:55:24;2.65;;;1.45;;
76284;SDS011;65096;50.998;7.098;2023-03-23T01:57:53;3.88;;;1.73;;
76284;SDS011;65096;50.998;7.098;2023-03-23T02:00:21;5.03;;;1.60;;
76284;SDS011;65096;50.998;7.098;2023-03-23T02:02:49;3.75;;;1.42;;
76284;SDS011;65096;50.998;7.098;2023-03-23T02:05:19;3.60;;;1.70;;
76284;SDS011;65096;50.998;7.098;2023-03-23T02:07:51;4.25;;;1.80;;
76284;SDS011;65096;50.998;7.098;2023-03-23T02:10:19;5.00;;;1.70;;
76284;SDS011;65096;50.998;7.098;2023-03-23T02:12:46;4.72;;;1.70;;
76284;SDS011;65096;50.998;7.098;2023-03-23T02:15:12;5.35;;;2.00;;
76284;SDS011;65096;50.998;7.098;2023-03-23T02:17:41;3.08;;;1.55;;
76284;SDS011;65096;50.998;7.098;2023-03-23T02:20:19;6.07;;;1.80;;
76284;SDS011;65096;50.998;7.098;2023-03-23T02:23:04;3.50;;;1.63;;
76284;SDS011;65096;50.998;7.098;2023-03-23T02:25:53;4.82;;;1.73;;
76284;SDS011;65096;50.998;7.098;2023-03-23T02:28:31;3.33;;;1.77;;
76284;SDS011;65096;50.998;7.098;2023-03-23T02:31:17;3.95;;;1.52;;
76284;SDS011;65096;50.998;7.098;2023-03-23T02:33:54;4.45;;;1.75;;
76284;SDS011;65096;50.998;7.098;2023-03-23T02:36:26;5.25;;;1.98;;
76284;SDS011;65096;50.998;7.098;2023-03-23T02:38:57;5.07;;;2.00;;
76284;SDS011;65096;50.998;7.098;2023-03-23T02:41:30;4.13;;;1.70;;
76284;SDS011;65096;50.998;7.098;2023-03-23T02:44:01;4.35;;;1.73;;
76284;SDS011;65096;50.998;7.098;2023-03-23T02:46:29;3.70;;;1.70;;
76284;SDS011;65096;50.998;7.098;2023-03-23T02:48:59;4.80;;;1.80;;
76284;SDS011;65096;50.998;7.098;2023-03-23T02:51:27;7.03;;;1.85;;
76284;SDS011;65096;50.998;7.098;2023-03-23T02:53:55;4.25;;;1.83;;
76284;SDS011;65096;50.998;7.098;2023-03-23T02:56:25;4.82;;;1.95;;
76284;SDS011;65096;50.998;7.098;2023-03-23T02:58:54;5.63;;;1.70;;
76284;SDS011;65096;50.998;7.098;2023-03-23T03:04:27;4.68;;;1.75;;
76284;SDS011;65096;50.998;7.098;2023-03-23T03:10:01;4.80;;;1.50;;
76284;SDS011;65096;50.998;7.098;2023-03-23T03:12:34;5.35;;;1.77;;
76284;SDS011;65096;50.998;7.098;2023-03-23T03:15:10;4.20;;;1.60;;
76284;SDS011;65096;50.998;7.098;2023-03-23T03:17:45;4.82;;;1.42;;
76284;SDS011;65096;50.998;7.098;2023-03-23T03:20:21;2.80;;;1.20;;
76284;SDS011;65096;50.998;7.098;2023-03-23T03:22:51;3.05;;;1.50;;
76284;SDS011;65096;50.998;7.098;2023-03-23T03:25:19;5.47;;;1.60;;
76284;SDS011;65096;50.998;7.098;2023-03-23T03:27:48;4.03;;;1.48;;
76284;SDS011;65096;50.998;7.098;2023-03-23T03:30:17;3.50;;;1.60;;
76284;SDS011;65096;50.998;7.098;2023-03-23T03:32:49;3.60;;;1.60;;
76284;SDS011;65096;50.998;7.098;2023-03-23T03:35:18;4.43;;;1.52;;
76284;SDS011;65096;50.998;7.098;2023-03-23T03:37:48;3.47;;;1.42;;
76284;SDS011;65096;50.998;7.098;2023-03-23T03:40:16;3.03;;;1.30;;
76284;SDS011;65096;50.998;7.098;2023-03-23T03:42:45;2.22;;;1.33;;
76284;SDS011;65096;50.998;7.098;2023-03-23T03:45:13;3.47;;;1.40;;
76284;SDS011;65096;50.998;7.098;2023-03-23T03:47:40;3.15;;;1.35;;
76284;SDS011;65096;50.998;7.098;2023-03-23T03:50:07;2.30;;;1.25;;
76284;SDS011;65096;50.998;7.098;2023-03-23T03:52:35;2.83;;;1.30;;
76284;SDS011;65096;50.998;7.098;2023-03-23T03:55:05;3.08;;;1.38;;
76284;SDS011;65096;50.998;7.098;2023-03-23T03:57:36;2.60;;;1.23;;
76284;SDS011;65096;50.998;7.098;2023-03-23T04:00:03;3.28;;;1.23;;
76284;SDS011;65096;50.998;7.098;2023-03-23T04:02:43;2.40;;;1.58;;
76284;SDS011;65096;50.998;7.098;2023-03-23T04:07:39;3.53;;;1.50;;
76284;SDS011;65096;50.998;7.098;2023-03-23T04:10:09;2.95;;;1.20;;
76284;SDS011;65096;50.998;7.098;2023-03-23T04:12:36;3.88;;;1.50;;
76284;SDS011;65096;50.998;7.098;2023-03-23T04:15:04;3.58;;;1.40;;
76284;SDS011;65096;50.998;7.098;2023-03-23T04:17:32;3.03;;;1.23;;
76284;SDS011;65096;50.998;7.098;2023-03-23T04:19:59;2.67;;;1.27;;
76284;SDS011;65096;50.998;7.098;2023-03-23T04:22:36;4.53;;;1.60;;
76284;SDS011;65096;50.998;7.098;2023-03-23T04:25:03;2.53;;;1.23;;
76284;SDS011;65096;50.998;7.098;2023-03-23T04:27:32;3.60;;;1.50;;
76284;SDS011;65096;50.998;7.098;2023-03-23T04:29:59;2.78;;;1.30;;
76284;SDS011;65096;50.998;7.098;2023-03-23T04:32:28;2.47;;;1.40;;
76284;SDS011;65096;50.998;7.098;2023-03-23T04:34:55;2.28;;;1.25;;
76284;SDS011;65096;50.998;7.098;2023-03-23T04:37:25;3.25;;;1.30;;
76284;SDS011;65096;50.998;7.098;2023-03-23T04:39:54;3.05;;;1.42;;
76284;SDS011;65096;50.998;7.098;2023-03-23T04:42:25;3.28;;;1.25;;
76284;SDS011;65096;50.998;7.098;2023-03-23T04:44:54;2.10;;;1.23;;
76284;SDS011;65096;50.998;7.098;2023-03-23T04:47:21;3.28;;;1.20;;
76284;SDS011;65096;50.998;7.098;2023-03-23T04:49:48;3.03;;;1.30;;
76284;SDS011;65096;50.998;7.098;2023-03-23T04:52:15;2.50;;;1.10;;
76284;SDS011;65096;50.998;7.098;2023-03-23T04:54:42;3.22;;;1.42;;
76284;SDS011;65096;50.998;7.098;2023-03-23T04:57:09;2.63;;;1.40;;
76284;SDS011;65096;50.998;7.098;2023-03-23T04:59:37;3.05;;;1.40;;
76284;SDS011;65096;50.998;7.098;2023-03-23T05:02:05;3.15;;;1.20;;
76284;SDS011;65096;50.998;7.098;2023-03-23T05:04:32;2.88;;;1.20;;
76284;SDS011;65096;50.998;7.098;2023-03-23T05:06:59;3.22;;;1.40;;
76284;SDS011;65096;50.998;7.098;2023-03-23T05:09:25;3.25;;;1.25;;
76284;SDS011;65096;50.998;7.098;2023-03-23T05:11:52;3.25;;;1.40;;
76284;SDS011;65096;50.998;7.098;2023-03-23T05:14:19;4.22;;;1.50;;
76284;SDS011;65096;50.998;7.098;2023-03-23T05:16:48;2.58;;;1.42;;
76284;SDS011;65096;50.998;7.098;2023-03-23T05:19:18;3.30;;;1.25;;
76284;SDS011;65096;50.998;7.098;2023-03-23T05:21:45;3.47;;;1.33;;
76284;SDS011;65096;50.998;7.098;2023-03-23T05:24:11;2.95;;;1.33;;
76284;SDS011;65096;50.998;7.098;2023-03-23T05:26:38;1.98;;;1.02;;
76284;SDS011;65096;50.998;7.098;2023-03-23T05:29:05;3.10;;;1.33;;
76284;SDS011;65096;50.998;7.098;2023-03-23T05:31:32;2.95;;;1.40;;
76284;SDS011;65096;50.998;7.098;2023-03-23T05:33:59;3.38;;;1.40;;
76284;SDS011;65096;50.998;7.098;2023-03-23T05:36:27;3.95;;;1.30;;
76284;SDS011;65096;50.998;7.098;2023-03-23T05:38:54;3.53;;;1.70;;
76284;SDS011;65096;50.998;7.098;2023-03-23T05:41:21;5.18;;;1.52;;
76284;SDS011;65096;50.998;7.098;2023-03-23T05:43:48;3.50;;;1.55;;
76284;SDS011;65096;50.998;7.098;2023-03-23T05:46:15;3.70;;;1.40;;
76284;SDS011;65096;50.998;7.098;2023-03-23T05:48:42;3.17;;;1.60;;
76284;SDS011;65096;50.998;7.098;2023-03-23T05:51:09;4.35;;;1.48;;
76284;SDS011;65096;50.998;7.098;2023-03-23T05:53:37;2.60;;;1.40;;
76284;SDS011;65096;50.998;7.098;2023-03-23T05:56:04;5.65;;;1.63;;
76284;SDS011;65096;50.998;7.098;2023-03-23T05:58:31;6.72;;;1.75;;
76284;SDS011;65096;50.998;7.098;2023-03-23T06:00:58;4.05;;;1.60;;
76284;SDS011;65096;50.998;7.098;2023-03-23T06:03:25;4.45;;;1.50;;
76284;SDS011;65096;50.998;7.098;2023-03-23T06:05:51;4.18;;;1.40;;
76284;SDS011;65096;50.998;7.098;2023-03-23T06:08:18;5.18;;;1.60;;
76284;SDS011;65096;50.998;7.098;2023-03-23T06:10:46;3.95;;;1.70;;
76284;SDS011;65096;50.998;7.098;2023-03-23T06:13:13;3.60;;;1.67;;
76284;SDS011;65096;50.998;7.098;2023-03-23T06:15:40;2.95;;;1.48;;
76284;SDS011;65096;50.998;7.098;2023-03-23T06:18:06;5.85;;;1.83;;
76284;SDS011;65096;50.998;7.098;2023-03-23T06:20:33;3.70;;;1.77;;
76284;SDS011;65096;50.998;7.098;2023-03-23T06:23:04;3.88;;;1.58;;
76284;SDS011;65096;50.998;7.098;2023-03-23T06:25:31;4.13;;;1.67;;
76284;SDS011;65096;50.998;7.098;2023-03-23T06:28:00;4.50;;;1.85;;
76284;SDS011;65096;50.998;7.098;2023-03-23T06:30:28;6.82;;;1.70;;
76284;SDS011;65096;50.998;7.098;2023-03-23T06:32:55;4.88;;;1.85;;
76284;SDS011;65096;50.998;7.098;2023-03-23T06:35:22;4.65;;;1.95;;
76284;SDS011;65096;50.998;7.098;2023-03-23T06:37:48;3.70;;;1.50;;
76284;SDS011;65096;50.998;7.098;2023-03-23T06:40:16;4.03;;;1.67;;
76284;SDS011;65096;50.998;7.098;2023-03-23T06:42:44;4.32;;;1.85;;
76284;SDS011;65096;50.998;7.098;2023-03-23T06:45:13;6.50;;;1.90;;
76284;SDS011;65096;50.998;7.098;2023-03-23T06:47:39;4.60;;;1.85;;
76284;SDS011;65096;50.998;7.098;2023-03-23T06:50:06;4.38;;;1.67;;
76284;SDS011;65096;50.998;7.098;2023-03-23T06:52:34;4.13;;;2.17;;
76284;SDS011;65096;50.998;7.098;2023-03-23T06:55:01;4.47;;;1.70;;
76284;SDS011;65096;50.998;7.098;2023-03-23T06:57:27;6.22;;;2.38;;
76284;SDS011;65096;50.998;7.098;2023-03-23T06:59:55;5.65;;;1.77;;
76284;SDS011;65096;50.998;7.098;2023-03-23T07:02:23;6.03;;;1.75;;
76284;SDS011;65096;50.998;7.098;2023-03-23T07:04:51;4.15;;;1.48;;
76284;SDS011;65096;50.998;7.098;2023-03-23T07:07:19;4.97;;;1.52;;
76284;SDS011;65096;50.998;7.098;2023-03-23T07:09:46;3.90;;;1.67;;
76284;SDS011;65096;50.998;7.098;2023-03-23T07:12:12;5.82;;;1.67;;
76284;SDS011;65096;50.998;7.098;2023-03-23T07:14:39;3.75;;;1.50;;
76284;SDS011;65096;50.998;7.098;2023-03-23T08:18:15;2.20;;;1.05;;
76284;SDS011;65096;50.998;7.098;2023-03-23T08:20:42;3.33;;;1.30;;
76284;SDS011;65096;50.998;7.098;2023-03-23T08:23:09;3.35;;;1.27;;
76284;SDS011;65096;50.998;7.098;2023-03-23T08:25:36;2.13;;;1.10;;
76284;SDS011;65096;50.998;7.098;2023-03-23T08:28:03;5.72;;;1.42;;
76284;SDS011;65096;50.998;7.098;2023-03-23T08:30:30;3.92;;;1.30;;
76284;SDS011;65096;50.998;7.098;2023-03-23T08:32:59;3.70;;;1.30;;
76284;SDS011;65096;50.998;7.098;2023-03-23T08:35:27;2.05;;;1.02;;
76284;SDS011;65096;50.998;7.098;2023-03-23T08:37:54;4.15;;;1.30;;
76284;SDS011;65096;50.998;7.098;2023-03-23T08:40:23;5.30;;;1.30;;
76284;SDS011;65096;50.998;7.098;2023-03-23T08:42:51;4.25;;;1.42;;
76284;SDS011;65096;50.998;7.098;2023-03-23T08:45:19;4.22;;;1.23;;
76284;SDS011;65096;50.998;7.098;2023-03-23T08:47:47;5.35;;;1.10;;
76284;SDS011;65096;50.998;7.098;2023-03-23T08:50:17;3.35;;;1.35;;
76284;SDS011;65096;50.998;7.098;2023-03-23T08:52:46;4.25;;;1.30;;
76284;SDS011;65096;50.998;7.098;2023-03-23T08:55:14;3.88;;;1.40;;
76284;SDS011;65096;50.998;7.098;2023-03-23T08:57:42;2.83;;;1.13;;
76284;SDS011;65096;50.998;7.098;2023-03-23T09:00:11;2.17;;;0.90;;
76284;SDS011;65096;50.998;7.098;2023-03-23T09:02:43;3.70;;;1.15;;
76284;SDS011;65096;50.998;7.098;2023-03-23T09:05:10;7.57;;;1.75;;
76284;SDS011;65096;50.998;7.098;2023-03-23T09:07:37;1.55;;;0.70;;
76284;SDS011;65096;50.998;7.098;2023-03-23T09:10:07;4.55;;;1.20;;
76284;SDS011;65096;50.998;7.098;2023-03-23T09:12:35;3.78;;;1.20;;
76284;SDS011;65096;50.998;7.098;2023-03-23T09:15:02;3.75;;;0.90;;
76284;SDS011;65096;50.998;7.098;2023-03-23T09:17:33;3.50;;;1.10;;
76284;SDS011;65096;50.998;7.098;2023-03-23T09:20:00;5.13;;;1.50;;
76284;SDS011;65096;50.998;7.098;2023-03-23T09:22:29;4.65;;;1.30;;
76284;SDS011;65096;50.998;7.098;2023-03-23T09:24:56;2.70;;;1.17;;
76284;SDS011;65096;50.998;7.098;2023-03-23T09:27:24;5.25;;;1.33;;
76284;SDS011;65096;50.998;7.098;2023-03-23T09:29:51;3.10;;;0.85;;
76284;SDS011;65096;50.998;7.098;2023-03-23T09:32:17;6.28;;;1.60;;
76284;SDS011;65096;50.998;7.098;2023-03-23T09:34:47;4.13;;;1.25;;
76284;SDS011;65096;50.998;7.098;2023-03-23T09:37:14;4.07;;;1.27;;
76284;SDS011;65096;50.998;7.098;2023-03-23T09:39:41;3.35;;;1.42;;
76284;SDS011;65096;50.998;7.098;2023-03-23T09:42:12;4.65;;;1.10;;
76284;SDS011;65096;50.998;7.098;2023-03-23T09:44:55;2.53;;;0.98;;
76284;SDS011;65096;50.998;7.098;2023-03-23T09:47:31;6.60;;;2.03;;
76284;SDS011;65096;50.998;7.098;2023-03-23T09:50:08;3.65;;;1.13;;
76284;SDS011;65096;50.998;7.098;2023-03-23T09:52:39;6.28;;;1.42;;
76284;SDS011;65096;50.998;7.098;2023-03-23T09:55:11;2.13;;;1.00;;
76284;SDS011;65096;50.998;7.098;2023-03-23T09:57:43;4.78;;;1.25;;
76284;SDS011;65096;50.998;7.098;2023-03-23T10:00:18;5.40;;;1.20;;
76284;SDS011;65096;50.998;7.098;2023-03-23T10:03:00;3.05;;;1.00;;
76284;SDS011;65096;50.998;7.098;2023-03-23T10:05:32;5.88;;;1.40;;
76284;SDS011;65096;50.998;7.098;2023-03-23T10:08:01;5.03;;;1.60;;
76284;SDS011;65096;50.998;7.098;2023-03-23T10:10:36;4.60;;;1.40;;
76284;SDS011;65096;50.998;7.098;2023-03-23T10:13:13;5.80;;;1.27;;
76284;SDS011;65096;50.998;7.098;2023-03-23T10:15:47;5.53;;;1.23;;
76284;SDS011;65096;50.998;7.098;2023-03-23T10:18:16;6.10;;;1.25;;
76284;SDS011;65096;50.998;7.098;2023-03-23T10:20:48;6.72;;;1.30;;
76284;SDS011;65096;50.998;7.098;2023-03-23T10:23:32;7.32;;;1.52;;
76284;SDS011;65096;50.998;7.098;2023-03-23T10:26:08;4.65;;;1.40;;
76284;SDS011;65096;50.998;7.098;2023-03-23T10:28:47;4.55;;;1.13;;
76284;SDS011;65096;50.998;7.098;2023-03-23T10:31:19;7.07;;;1.10;;
76284;SDS011;65096;50.998;7.098;2023-03-23T10:33:50;4.07;;;1.10;;
76284;SDS011;65096;50.998;7.098;2023-03-23T10:36:23;1.55;;;0.50;;
76284;SDS011;65096;50.998;7.098;2023-03-23T10:38:54;6.20;;;1.30;;
76284;SDS011;65096;50.998;7.098;2023-03-23T10:43:51;2.83;;;1.15;;
76284;SDS011;65096;50.998;7.098;2023-03-23T10:46:29;4.25;;;1.23;;
76284;SDS011;65096;50.998;7.098;2023-03-23T10:49:06;1.60;;;0.95;;
76284;SDS011;65096;50.998;7.098;2023-03-23T10:51:38;4.00;;;1.13;;
76284;SDS011;65096;50.998;7.098;2023-03-23T10:54:08;3.72;;;1.17;;
76284;SDS011;65096;50.998;7.098;2023-03-23T10:56:36;2.88;;;1.05;;
76284;SDS011;65096;50.998;7.098;2023-03-23T10:59:12;3.38;;;1.02;;
76284;SDS011;65096;50.998;7.098;2023-03-23T11:01:42;1.02;;;0.80;;
76284;SDS011;65096;50.998;7.098;2023-03-23T11:04:12;3.40;;;1.10;;
76284;SDS011;65096;50.998;7.098;2023-03-23T11:06:42;2.25;;;0.95;;
76284;SDS011;65096;50.998;7.098;2023-03-23T11:09:11;1.73;;;0.70;;
76284;SDS011;65096;50.998;7.098;2023-03-23T11:11:41;1.17;;;0.50;;
76284;SDS011;65096;50.998;7.098;2023-03-23T11:14:16;1.20;;;0.57;;
76284;SDS011;65096;50.998;7.098;2023-03-23T11:16:49;0.80;;;0.50;;
76284;SDS011;65096;50.998;7.098;2023-03-23T11:19:21;2.55;;;0.90;;
76284;SDS011;65096;50.998;7.098;2023-03-23T11:21:49;3.15;;;0.90;;
76284;SDS011;65096;50.998;7.098;2023-03-23T11:24:20;1.08;;;0.65;;
76284;SDS011;65096;50.998;7.098;2023-03-23T11:26:48;1.23;;;0.93;;
76284;SDS011;65096;50.998;7.098;2023-03-23T11:29:18;3.33;;;1.08;;
76284;SDS011;65096;50.998;7.098;2023-03-23T11:31:49;1.65;;;1.00;;
76284;SDS011;65096;50.998;7.098;2023-03-23T11:34:20;0.82;;;0.70;;
76284;SDS011;65096;50.998;7.098;2023-03-23T11:36:49;1.95;;;0.90;;
76284;SDS011;65096;50.998;7.098;2023-03-23T11:39:20;1.75;;;0.85;;
76284;SDS011;65096;50.998;7.098;2023-03-23T11:41:49;1.60;;;1.08;;
76284;SDS011;65096;50.998;7.098;2023-03-23T11:44:16;1.25;;;0.65;;
76284;SDS011;65096;50.998;7.098;2023-03-23T11:46:55;3.60;;;1.00;;
76284;SDS011;65096;50.998;7.098;2023-03-23T11:49:35;2.15;;;1.10;;
76284;SDS011;65096;50.998;7.098;2023-03-23T11:52:09;4.45;;;1.00;;
76284;SDS011;65096;50.998;7.098;2023-03-23T11:54:41;1.80;;;0.82;;
76284;SDS011;65096;50.998;7.098;2023-03-23T11:57:13;0.93;;;0.40;;
76284;SDS011;65096;50.998;7.098;2023-03-23T11:59:41;3.15;;;1.00;;
76284;SDS011;65096;50.998;7.098;2023-03-23T12:02:23;3.40;;;1.23;;
76284;SDS011;65096;50.998;7.098;2023-03-23T12:05:26;3.05;;;1.10;;
76284;SDS011;65096;50.998;7.098;2023-03-23T12:08:06;1.73;;;0.70;;
76284;SDS011;65096;50.998;7.098;2023-03-23T12:10:44;1.42;;;0.93;;
76284;SDS011;65096;50.998;7.098;2023-03-23T12:13:27;1.15;;;0.60;;
76284;SDS011;65096;50.998;7.098;2023-03-23T12:16:09;2.80;;;0.70;;
76284;SDS011;65096;50.998;7.098;2023-03-23T12:18:47;2.72;;;1.20;;
76284;SDS011;65096;50.998;7.098;2023-03-23T12:21:26;1.52;;;0.70;;
76284;SDS011;65096;50.998;7.098;2023-03-23T12:24:01;3.08;;;1.05;;
76284;SDS011;65096;50.998;7.098;2023-03-23T12:26:41;5.35;;;2.25;;
76284;SDS011;65096;50.998;7.098;2023-03-23T12:29:32;2.33;;;1.05;;
76284;SDS011;65096;50.998;7.098;2023-03-23T12:32:18;2.05;;;0.93;;
76284;SDS011;65096;50.998;7.098;2023-03-23T12:35:01;2.00;;;0.93;;
76284;SDS011;65096;50.998;7.098;2023-03-23T12:37:41;1.30;;;0.90;;
76284;SDS011;65096;50.998;7.098;2023-03-23T12:40:32;3.40;;;1.30;;
76284;SDS011;65096;50.998;7.098;2023-03-23T12:43:23;1.80;;;0.80;;
76284;SDS011;65096;50.998;7.098;2023-03-23T12:46:01;2.17;;;1.10;;
76284;SDS011;65096;50.998;7.098;2023-03-23T12:48:37;1.60;;;0.90;;
76284;SDS011;65096;50.998;7.098;2023-03-23T12:51:10;4.07;;;1.40;;
76284;SDS011;65096;50.998;7.098;2023-03-23T12:53:44;2.42;;;1.23;;
76284;SDS011;65096;50.998;7.098;2023-03-23T12:56:18;2.95;;;1.13;;
76284;SDS011;65096;50.998;7.098;2023-03-23T12:58:53;4.25;;;1.13;;
76284;SDS011;65096;50.998;7.098;2023-03-23T13:01:26;2.65;;;1.20;;
76284;SDS011;65096;50.998;7.098;2023-03-23T13:03:59;4.78;;;1.20;;
76284;SDS011;65096;50.998;7.098;2023-03-23T13:06:33;2.28;;;1.08;;
76284;SDS011;65096;50.998;7.098;2023-03-23T13:09:04;3.45;;;1.10;;
76284;SDS011;65096;50.998;7.098;2023-03-23T13:11:37;5.00;;;1.50;;
76284;SDS011;65096;50.998;7.098;2023-03-23T13:14:10;1.80;;;0.85;;
76284;SDS011;65096;50.998;7.098;2023-03-23T13:16:54;5.40;;;1.23;;
76284;SDS011;65096;50.998;7.098;2023-03-23T13:19:30;3.30;;;1.20;;
76284;SDS011;65096;50.998;7.098;2023-03-23T13:22:04;3.75;;;1.30;;
76284;SDS011;65096;50.998;7.098;2023-03-23T13:24:36;4.22;;;1.15;;
76284;SDS011;65096;50.998;7.098;2023-03-23T13:27:15;2.33;;;0.80;;
76284;SDS011;65096;50.998;7.098;2023-03-23T13:29:43;3.90;;;1.10;;
76284;SDS011;65096;50.998;7.098;2023-03-23T13:32:11;2.60;;;0.77;;
76284;SDS011;65096;50.998;7.098;2023-03-23T13:34:41;2.40;;;1.13;;
76284;SDS011;65096;50.998;7.098;2023-03-23T13:37:11;2.67;;;0.88;;
76284;SDS011;65096;50.998;7.098;2023-03-23T13:39:50;2.85;;;1.23;;
76284;SDS011;65096;50.998;7.098;2023-03-23T13:42:21;3.38;;;1.40;;
76284;SDS011;65096;50.998;7.098;2023-03-23T13:45:05;2.75;;;1.00;;
76284;SDS011;65096;50.998;7.098;2023-03-23T13:47:36;3.40;;;0.90;;
76284;SDS011;65096;50.998;7.098;2023-03-23T13:50:09;2.53;;;0.88;;
76284;SDS011;65096;50.998;7.098;2023-03-23T13:52:46;1.30;;;0.68;;
76284;SDS011;65096;50.998;7.098;2023-03-23T13:55:18;2.45;;;0.95;;
76284;SDS011;65096;50.998;7.098;2023-03-23T13:57:51;1.63;;;0.90;;
76284;SDS011;65096;50.998;7.098;2023-03-23T14:00:33;1.63;;;0.75;;
76284;SDS011;65096;50.998;7.098;2023-03-23T14:03:03;0.80;;;0.63;;
76284;SDS011;65096;50.998;7.098;2023-03-23T14:05:37;2.17;;;1.05;;
76284;SDS011;65096;50.998;7.098;2023-03-23T14:08:11;3.78;;;1.10;;
76284;SDS011;65096;50.998;7.098;2023-03-23T14:10:41;3.55;;;1.00;;
76284;SDS011;65096;50.998;7.098;2023-03-23T14:13:13;1.65;;;0.95;;
76284;SDS011;65096;50.998;7.098;2023-03-23T14:15:44;4.60;;;1.33;;
76284;SDS011;65096;50.998;7.098;2023-03-23T14:18:21;2.97;;;1.00;;
76284;SDS011;65096;50.998;7.098;2023-03-23T14:20:50;3.88;;;0.98;;
76284;SDS011;65096;50.998;7.098;2023-03-23T14:23:18;4.18;;;1.20;;
76284;SDS011;65096;50.998;7.098;2023-03-23T14:25:54;3.58;;;1.35;;
76284;SDS011;65096;50.998;7.098;2023-03-23T14:28:21;2.88;;;1.20;;
76284;SDS011;65096;50.998;7.098;2023-03-23T14:30:48;1.67;;;1.02;;
76284;SDS011;65096;50.998;7.098;2023-03-23T14:33:22;3.40;;;1.15;;
76284;SDS011;65096;50.998;7.098;2023-03-23T14:35:51;3.03;;;1.15;;
76284;SDS011;65096;50.998;7.098;2023-03-23T14:38:21;3.65;;;1.50;;
76284;SDS011;65096;50.998;7.098;2023-03-23T14:40:51;4.25;;;1.40;;
76284;SDS011;65096;50.998;7.098;2023-03-23T14:43:20;6.05;;;1.35;;
76284;SDS011;65096;50.998;7.098;2023-03-23T14:45:51;3.97;;;1.52;;
76284;SDS011;65096;50.998;7.098;2023-03-23T14:48:19;5.60;;;1.40;;
76284;SDS011;65096;50.998;7.098;2023-03-23T14:50:50;6.50;;;1.60;;
76284;SDS011;65096;50.998;7.098;2023-03-23T14:53:21;3.13;;;1.33;;
76284;SDS011;65096;50.998;7.098;2023-03-23T14:55:49;6.75;;;1.50;;
76284;SDS011;65096;50.998;7.098;2023-03-23T14:58:18;6.20;;;1.50;;
76284;SDS011;65096;50.998;7.098;2023-03-23T15:00:47;4.25;;;1.50;;
76284;SDS011;65096;50.998;7.098;2023-03-23T15:03:19;3.25;;;1.20;;
76284;SDS011;65096;50.998;7.098;2023-03-23T15:05:48;5.68;;;1.40;;
76284;SDS011;65096;50.998;7.098;2023-03-23T15:08:24;4.00;;;1.40;;
76284;SDS011;65096;50.998;7.098;2023-03-23T15:10:57;5.45;;;1.80;;
76284;SDS011;65096;50.998;7.098;2023-03-23T15:13:29;6.90;;;2.05;;
76284;SDS011;65096;50.998;7.098;2023-03-23T15:16:04;6.28;;;1.58;;
76284;SDS011;65096;50.998;7.098;2023-03-23T15:18:34;6.90;;;1.65;;
76284;SDS011;65096;50.998;7.098;2023-03-23T15:21:08;5.03;;;1.52;;
76284;SDS011;65096;50.998;7.098;2023-03-23T15:23:41;4.75;;;1.33;;
76284;SDS011;65096;50.998;7.098;2023-03-23T15:26:16;4.45;;;1.15;;
76284;SDS011;65096;50.998;7.098;2023-03-23T15:28:48;5.13;;;1.48;;
76284;SDS011;65096;50.998;7.098;2023-03-23T15:31:15;6.05;;;1.42;;
76284;SDS011;65096;50.998;7.098;2023-03-23T15:33:42;4.28;;;1.70;;
76284;SDS011;65096;50.998;7.098;2023-03-23T15:36:14;4.47;;;1.42;;
76284;SDS011;65096;50.998;7.098;2023-03-23T15:38:45;7.15;;;1.73;;
76284;SDS011;65096;50.998;7.098;2023-03-23T15:41:21;4.68;;;1.58;;
76284;SDS011;65096;50.998;7.098;2023-03-23T15:43:50;6.90;;;2.00;;
76284;SDS011;65096;50.998;7.098;2023-03-23T15:46:19;5.82;;;1.50;;
76284;SDS011;65096;50.998;7.098;2023-03-23T15:48:49;6.80;;;1.67;;
76284;SDS011;65096;50.998;7.098;2023-03-23T15:51:17;6.57;;;1.85;;
76284;SDS011;65096;50.998;7.098;2023-03-23T15:53:47;4.00;;;1.50;;
76284;SDS011;65096;50.998;7.098;2023-03-23T15:56:15;4.72;;;1.25;;
76284;SDS011;65096;50.998;7.098;2023-03-23T15:58:43;5.18;;;1.40;;
76284;SDS011;65096;50.998;7.098;2023-03-23T16:01:11;4.43;;;1.38;;
76284;SDS011;65096;50.998;7.098;2023-03-23T16:03:40;4.40;;;1.15;;
76284;SDS011;65096;50.998;7.098;2023-03-23T16:06:10;2.95;;;1.00;;
76284;SDS011;65096;50.998;7.098;2023-03-23T16:08:38;5.55;;;1.42;;
76284;SDS011;65096;50.998;7.098;2023-03-23T16:11:06;4.85;;;1.52;;
76284;SDS011;65096;50.998;7.098;2023-03-23T16:13:34;4.63;;;1.42;;
76284;SDS011;65096;50.998;7.098;2023-03-23T16:16:03;5.70;;;1.80;;
76284;SDS011;65096;50.998;7.098;2023-03-23T16:18:32;5.07;;;1.60;;
76284;SDS011;65096;50.998;7.098;2023-03-23T16:20:59;4.53;;;1.55;;
76284;SDS011;65096;50.998;7.098;2023-03-23T16:23:27;5.38;;;1.40;;